Time;durP1;ratioP1;P1;durP2;ratioP2;P2;SDS_P1;SDS_P2;PMS_P1;PMS_P2;Temp;Humidity;BMP_temperature;BMP_pressure;BME280_temperature;BME280_humidity;BME280_pressure;Samples;Min_cycle;Max_cycle;Signal;HPM_P1;HPM_P2
2024/02/08 00:00:03;;;;;;;2.30;2.20;;;9.80;1.00;;;;;;4996212;28;20464;-77
2024/02/08 00:02:31;;;;;;;2.30;2.20;;;9.80;1.00;;;;;;4995410;28;20450;-78
2024/02/08 00:04:59;;;;;;;2.27;2.13;;;9.80;99.90;;;;;;4999137;28;20512;-78
2024/02/08 00:07:29;;;;;;;2.47;2.37;;;9.80;1.00;;;;;;4999859;28;20446;-78
2024/02/08 00:09:58;;;;;;;2.30;2.20;;;9.80;1.00;;;;;;4997861;28;20450;-79
2024/02/08 00:12:26;;;;;;;2.60;2.50;;;9.80;99.90;;;;;;4997910;28;20458;-77
2024/02/08 00:14:54;;;;;;;2.30;2.30;;;9.90;99.90;;;;;;4993787;28;20470;-78
2024/02/08 00:17:22;;;;;;;2.37;2.37;;;9.90;99.90;;;;;;4991303;28;20458;-77
2024/02/08 00:19:50;;;;;;;2.63;2.53;;;9.80;99.90;;;;;;4997046;28;20471;-78
2024/02/08 00:22:20;;;;;;;2.70;2.50;;;9.90;99.90;;;;;;4996660;28;20644;-77
2024/02/08 00:24:53;;;;;;;2.57;2.47;;;9.90;99.90;;;;;;4992023;28;20446;-79
2024/02/08 00:27:21;;;;;;;2.50;2.40;;;9.80;1.00;;;;;;4992236;28;21084;-77
2024/02/08 00:29:49;;;;;;;2.70;2.60;;;9.90;99.90;;;;;;4996783;28;20485;-76
2024/02/08 00:32:19;;;;;;;2.20;2.20;;;9.90;99.90;;;;;;4995684;28;20486;-77
2024/02/08 00:34:48;;;;;;;2.57;2.47;;;9.90;1.00;;;;;;4999700;28;20450;-77
2024/02/08 00:37:16;;;;;;;2.50;2.43;;;10.00;99.90;;;;;;4995656;28;20460;-78
2024/02/08 00:39:45;;;;;;;2.43;2.40;;;10.00;99.90;;;;;;5000233;28;20505;-79
2024/02/08 00:42:14;;;;;;;2.70;2.50;;;10.00;99.90;;;;;;4988975;28;20450;-78
2024/02/08 00:44:43;;;;;;;2.33;2.23;;;9.90;82.40;;;;;;4992830;28;20465;-79
2024/02/08 00:47:11;;;;;;;2.47;2.37;;;9.90;1.00;;;;;;4989081;28;20472;-78
2024/02/08 00:49:40;;;;;;;2.70;2.50;;;9.90;99.90;;;;;;4989134;28;21364;-77
2024/02/08 00:52:09;;;;;;;2.70;2.60;;;9.80;1.00;;;;;;4986221;28;20486;-79
2024/02/08 00:54:37;;;;;;;2.50;2.50;;;9.80;1.00;;;;;;4989113;28;20468;-78
2024/02/08 00:57:07;;;;;;;2.63;2.57;;;9.80;13.50;;;;;;4987790;28;20481;-78
2024/02/08 00:59:38;;;;;;;2.80;2.70;;;9.90;1.00;;;;;;4989521;28;20471;-79
2024/02/08 01:02:07;;;;;;;2.70;2.60;;;9.90;99.90;;;;;;4993059;28;20645;-78
2024/02/08 01:04:35;;;;;;;2.57;2.47;;;10.00;99.90;;;;;;4991266;28;20450;-79
2024/02/08 01:07:04;;;;;;;2.33;2.33;;;9.90;99.90;;;;;;4991884;28;20806;-78
2024/02/08 01:09:32;;;;;;;2.77;2.70;;;10.00;99.90;;;;;;4988947;28;20573;-78
2024/02/08 01:12:01;;;;;;;2.93;2.83;;;9.90;1.00;;;;;;4990618;28;20597;-77
2024/02/08 01:14:30;;;;;;;3.10;3.00;;;9.90;99.90;;;;;;4993894;28;20462;-79
2024/02/08 01:17:00;;;;;;;2.73;2.63;;;9.90;99.90;;;;;;4997678;28;20512;-79
2024/02/08 01:19:28;;;;;;;2.70;2.60;;;10.00;99.90;;;;;;4995723;28;20466;-80
2024/02/08 01:21:56;;;;;;;2.90;2.80;;;9.90;99.90;;;;;;4991604;28;20457;-79
2024/02/08 01:24:25;;;;;;;2.70;2.70;;;10.00;99.90;;;;;;4991427;28;20516;-80
2024/02/08 01:26:56;;;;;;;2.90;2.80;;;10.00;1.00;;;;;;4992082;28;20503;-79
2024/02/08 01:29:26;;;;;;;2.63;2.63;;;10.00;1.00;;;;;;4993767;28;20511;-79
2024/02/08 01:31:54;;;;;;;2.70;2.70;;;9.90;1.00;;;;;;4993673;28;20488;-79
2024/02/08 01:34:25;;;;;;;2.80;2.70;;;9.80;99.90;;;;;;4995019;28;21291;-78
2024/02/08 01:36:54;;;;;;;2.90;2.80;;;9.90;1.00;;;;;;5000354;28;20488;-79
2024/02/08 01:39:24;;;;;;;2.70;2.70;;;9.90;99.90;;;;;;4993448;28;20652;-78
2024/02/08 01:41:53;;;;;;;2.60;2.60;;;9.90;97.90;;;;;;4998127;28;20454;-78
2024/02/08 01:44:22;;;;;;;2.80;2.70;;;9.90;1.00;;;;;;5000164;28;20461;-80
2024/02/08 01:46:51;;;;;;;3.00;2.90;;;9.90;99.90;;;;;;5001533;28;20540;-78
2024/02/08 01:49:24;;;;;;;2.67;2.67;;;9.90;99.90;;;;;;4998415;28;20454;-78
2024/02/08 01:51:59;;;;;;;2.90;2.80;;;9.90;1.00;;;;;;5000479;28;20469;-79
2024/02/08 01:54:30;;;;;;;2.80;2.80;;;9.90;99.90;;;;;;5000202;28;20488;-79
2024/02/08 01:57:03;;;;;;;2.87;2.77;;;9.90;99.90;;;;;;5001155;28;20485;-78
2024/02/08 01:59:32;;;;;;;2.90;2.80;;;9.90;1.00;;;;;;5001004;28;20470;-78
2024/02/08 02:02:02;;;;;;;3.10;3.00;;;9.90;1.00;;;;;;5002549;28;20459;-79
2024/02/08 02:04:32;;;;;;;2.93;2.90;;;9.90;99.90;;;;;;5002379;28;20481;-79
2024/02/08 02:07:03;;;;;;;3.33;3.23;;;10.00;1.00;;;;;;4998449;28;20470;-78
2024/02/08 02:09:32;;;;;;;2.97;2.97;;;10.00;99.90;;;;;;4997027;28;20472;-80
2024/02/08 02:12:04;;;;;;;3.13;3.03;;;10.00;1.00;;;;;;5000908;28;21239;-78
2024/02/08 02:14:35;;;;;;;3.10;3.00;;;10.00;1.00;;;;;;5001053;28;20443;-77
2024/02/08 02:17:15;;;;;;;3.33;3.23;;;10.00;1.00;;;;;;5002707;28;20465;-77
2024/02/08 02:19:46;;;;;;;2.90;2.80;;;10.00;1.00;;;;;;5000694;28;20459;-80
2024/02/08 02:22:19;;;;;;;2.80;2.70;;;10.00;1.00;;;;;;4998636;28;20455;-78
2024/02/08 02:24:49;;;;;;;2.90;2.90;;;10.00;1.00;;;;;;5004016;28;20449;-78
2024/02/08 02:27:17;;;;;;;3.00;2.90;;;10.00;1.00;;;;;;5000785;28;20508;-79
2024/02/08 02:29:52;;;;;;;2.70;2.70;;;10.00;1.00;;;;;;4998184;28;20474;-79
2024/02/08 02:32:22;;;;;;;2.77;2.77;;;10.00;92.70;;;;;;5000573;28;20784;-78
2024/02/08 02:34:53;;;;;;;3.13;3.03;;;10.00;99.90;;;;;;5001695;28;20454;-79
2024/02/08 02:37:23;;;;;;;2.70;2.70;;;10.00;99.90;;;;;;5001326;28;21115;-80
2024/02/08 02:39:52;;;;;;;3.03;3.00;;;10.00;99.90;;;;;;5002166;28;20463;-77
2024/02/08 02:42:21;;;;;;;3.20;3.10;;;10.10;99.90;;;;;;5000522;28;20442;-78
2024/02/08 02:44:49;;;;;;;3.00;3.00;;;10.10;99.90;;;;;;4997603;28;20536;-79
2024/02/08 02:47:25;;;;;;;3.00;3.00;;;10.10;99.90;;;;;;4995514;28;20470;-77
2024/02/08 02:49:55;;;;;;;2.90;2.90;;;10.10;99.90;;;;;;5000277;28;20445;-79
2024/02/08 02:52:25;;;;;;;3.10;3.00;;;10.10;1.00;;;;;;5001029;28;20505;-80
2024/02/08 02:54:53;;;;;;;3.33;3.23;;;10.10;1.00;;;;;;5000102;28;21055;-78
2024/02/08 02:57:21;;;;;;;2.97;2.97;;;10.10;99.90;;;;;;5000380;28;20469;-79
2024/02/08 02:59:49;;;;;;;3.17;3.10;;;10.10;1.00;;;;;;5001601;28;20461;-79
2024/02/08 03:02:28;;;;;;;3.40;3.30;;;10.00;99.90;;;;;;5001376;28;20454;-79
2024/02/08 03:04:56;;;;;;;3.60;3.50;;;10.00;1.00;;;;;;4993992;28;20474;-77
2024/02/08 03:07:28;;;;;;;3.33;3.23;;;10.00;99.90;;;;;;4999199;28;20557;-78
2024/02/08 03:09:56;;;;;;;3.20;3.20;;;10.00;39.70;;;;;;5000627;28;20509;-78
2024/02/08 03:12:26;;;;;;;2.97;2.97;;;10.10;99.90;;;;;;5001661;28;20481;-79
2024/02/08 03:14:58;;;;;;;3.40;3.30;;;10.00;99.90;;;;;;4999501;28;20628;-80
2024/02/08 03:17:27;;;;;;;3.60;3.50;;;10.00;99.90;;;;;;4999307;28;20567;-78
2024/02/08 03:19:55;;;;;;;3.60;3.50;;;10.00;99.90;;;;;;4987943;28;20554;-78
2024/02/08 03:22:23;;;;;;;3.40;3.30;;;10.00;99.90;;;;;;4997485;28;20457;-80
2024/02/08 03:24:53;;;;;;;3.40;3.30;;;10.00;99.90;;;;;;5001843;28;20519;-79
2024/02/08 03:27:24;;;;;;;3.30;3.20;;;10.00;1.00;;;;;;4996129;28;20465;-79
2024/02/08 03:29:53;;;;;;;3.30;3.20;;;10.00;1.00;;;;;;4999437;28;20454;-79
2024/02/08 03:32:23;;;;;;;3.27;3.17;;;10.00;99.90;;;;;;5002686;28;21367;-79
2024/02/08 03:34:53;;;;;;;3.40;3.30;;;10.10;99.90;;;;;;4999038;28;20909;-80
2024/02/08 03:37:21;;;;;;;3.17;3.17;;;10.10;1.00;;;;;;4997618;28;20455;-81
2024/02/08 03:39:50;;;;;;;3.20;3.00;;;10.00;99.90;;;;;;4997906;28;21224;-79
2024/02/08 03:42:20;;;;;;;3.10;3.10;;;10.00;99.90;;;;;;4998787;28;20531;-79
2024/02/08 03:44:48;;;;;;;3.53;3.33;;;10.00;99.90;;;;;;4999133;28;20533;-79
2024/02/08 03:47:17;;;;;;;3.63;3.53;;;10.10;99.90;;;;;;4999858;28;20454;-78
2024/02/08 03:49:51;;;;;;;3.60;3.50;;;10.00;99.90;;;;;;4999192;28;20525;-78
2024/02/08 03:52:19;;;;;;;3.90;3.80;;;10.10;1.00;;;;;;5000047;28;20482;-78
2024/02/08 03:54:48;;;;;;;3.40;3.30;;;10.10;99.90;;;;;;5000986;28;20457;-77
2024/02/08 03:57:18;;;;;;;3.40;3.30;;;10.10;99.90;;;;;;4998744;28;20465;-77
2024/02/08 03:59:48;;;;;;;3.83;3.73;;;10.00;99.90;;;;;;4998702;28;20457;-79
2024/02/08 04:02:21;;;;;;;3.67;3.47;;;10.00;99.90;;;;;;4979921;28;20457;-79
2024/02/08 04:04:53;;;;;;;3.70;3.60;;;10.00;99.90;;;;;;4995049;28;20484;-80
2024/02/08 04:07:34;;;;;;;3.90;3.80;;;10.00;6.90;;;;;;4996422;28;20458;-80
2024/02/08 04:10:18;;;;;;;3.90;3.80;;;10.10;1.00;;;;;;4997654;28;20460;-78
2024/02/08 04:54:42;;;;;;;3.50;3.40;;;10.20;37.80;;;;;;4999195;28;20453;-78
2024/02/08 04:57:10;;;;;;;3.70;3.60;;;10.20;99.90;;;;;;4989945;28;20464;-77
2024/02/08 04:59:42;;;;;;;3.80;3.70;;;10.20;43.70;;;;;;4991937;28;20476;-77
2024/02/08 05:02:10;;;;;;;3.92;3.83;;;10.10;1.00;;;;;;4987794;28;20456;-77
2024/02/08 05:04:40;;;;;;;3.37;3.37;;;10.10;99.90;;;;;;4981411;28;20199;-78
2024/02/08 05:07:08;;;;;;;3.73;3.63;;;10.20;1.00;;;;;;4992537;28;20540;-80
2024/02/08 05:09:39;;;;;;;3.73;3.63;;;10.20;99.90;;;;;;4996516;28;20453;-80
2024/02/08 05:12:10;;;;;;;3.47;3.37;;;10.20;1.00;;;;;;4995304;28;20523;-80
2024/02/08 05:14:39;;;;;;;3.80;3.70;;;10.20;1.00;;;;;;4993607;28;20584;-78
2024/02/08 05:17:09;;;;;;;3.90;3.80;;;10.20;1.00;;;;;;4996932;28;20465;-79
2024/02/08 05:19:43;;;;;;;3.80;3.70;;;10.20;99.90;;;;;;5000110;28;20489;-81
2024/02/08 05:22:13;;;;;;;4.10;4.00;;;10.20;99.90;;;;;;5001280;28;20457;-79
2024/02/08 05:24:42;;;;;;;5.63;5.43;;;10.20;10.30;;;;;;4999967;28;20458;-79
2024/02/08 05:27:11;;;;;;;4.40;4.30;;;10.20;99.90;;;;;;5000453;28;20476;-80
2024/02/08 05:29:41;;;;;;;4.00;3.90;;;10.20;99.90;;;;;;4999692;28;20472;-78
2024/02/08 05:32:10;;;;;;;3.90;3.80;;;10.20;99.90;;;;;;4996360;28;20469;-78
2024/02/08 05:34:40;;;;;;;4.23;4.03;;;10.20;1.00;;;;;;5003604;28;20490;-76
2024/02/08 05:37:08;;;;;;;3.80;3.60;;;10.20;1.00;;;;;;5004439;28;20942;-79
2024/02/08 05:39:37;;;;;;;4.80;4.60;;;10.20;99.90;;;;;;4998195;28;20454;-80
2024/02/08 05:42:06;;;;;;;4.15;4.05;;;10.20;99.90;;;;;;4999996;28;20455;-78
2024/02/08 05:44:40;;;;;;;3.60;3.50;;;10.10;92.90;;;;;;5003354;28;20192;-80
2024/02/08 05:47:08;;;;;;;4.27;4.17;;;10.20;27.10;;;;;;5003968;28;20464;-80
2024/02/08 05:49:45;;;;;;;4.57;4.47;;;10.20;1.00;;;;;;5000452;28;20450;-80
2024/02/08 05:52:15;;;;;;;4.37;4.20;;;10.20;1.00;;;;;;5002819;28;20464;-79
2024/02/08 05:54:45;;;;;;;3.93;3.83;;;10.20;99.90;;;;;;4996918;28;20918;-80
2024/02/08 05:57:14;;;;;;;4.73;4.53;;;10.30;99.90;;;;;;5000225;28;20485;-81
2024/02/08 05:59:44;;;;;;;4.20;3.90;;;10.20;99.90;;;;;;4996706;28;20465;-80
2024/02/08 06:02:22;;;;;;;4.23;4.13;;;10.30;99.90;;;;;;5001069;28;20519;-81
2024/02/08 06:05:08;;;;;;;4.30;4.20;;;10.30;99.90;;;;;;4998894;28;20430;-81
2024/02/08 06:07:36;;;;;;;4.20;4.10;;;10.30;1.00;;;;;;5000307;28;20507;-81
2024/02/08 06:10:13;;;;;;;4.10;4.00;;;10.20;7.80;;;;;;4999355;28;20466;-80
2024/02/08 06:12:51;;;;;;;4.13;4.03;;;10.30;93.00;;;;;;5003301;28;20444;-80
2024/02/08 06:15:24;;;;;;;4.13;4.00;;;10.20;99.90;;;;;;5000039;28;20481;-80
2024/02/08 06:17:58;;;;;;;4.47;4.37;;;10.00;99.90;;;;;;4998545;28;20488;-79
2024/02/08 06:20:35;;;;;;;4.20;4.10;;;10.10;99.90;;;;;;5000731;28;20450;-82
2024/02/08 06:23:17;;;;;;;4.20;4.10;;;10.10;99.90;;;;;;5000692;28;20497;-80
2024/02/08 06:26:27;;;;;;;4.20;4.10;;;10.10;99.90;;;;;;5000041;28;20480;-79
2024/02/08 06:28:46;;;;;;;4.20;4.10;;;10.10;99.90;;;;;;4997057;28;20489;-81
2024/02/08 06:31:18;;;;;;;3.83;3.73;;;10.10;99.90;;;;;;4997773;28;20446;-80
2024/02/08 06:36:33;;;;;;;4.30;4.20;;;10.10;99.90;;;;;;5000989;28;21104;-80
2024/02/08 06:39:20;;;;;;;4.73;4.63;;;10.20;99.90;;;;;;5002421;28;20441;-79
2024/02/08 06:42:07;;;;;;;4.63;4.53;;;10.20;99.90;;;;;;4999549;28;20824;-80
2024/02/08 06:44:52;;;;;;;4.50;4.30;;;10.20;99.90;;;;;;5002045;28;20544;-79
2024/02/08 06:47:54;;;;;;;4.53;4.43;;;10.20;1.00;;;;;;5000634;28;20449;-79
2024/02/08 07:37:25;;;;;;;5.30;5.20;;;10.10;1.00;;;;;;4998452;28;20453;-81
2024/02/08 07:40:00;;;;;;;5.28;5.07;;;10.00;1.00;;;;;;4999398;28;20765;-79
2024/02/08 07:42:35;;;;;;;5.30;5.20;;;10.10;1.00;;;;;;4999572;28;20190;-79
2024/02/08 07:45:04;;;;;;;4.70;4.60;;;10.10;1.00;;;;;;4983386;28;20475;-79
2024/02/08 07:47:34;;;;;;;4.50;4.40;;;10.00;1.00;;;;;;4999469;28;20742;-78
2024/02/08 07:50:05;;;;;;;4.50;4.40;;;10.10;1.00;;;;;;5000533;28;20446;-80
2024/02/08 07:52:45;;;;;;;4.90;4.80;;;10.10;1.00;;;;;;4998221;28;20463;-79
2024/02/08 07:55:26;;;;;;;4.70;4.60;;;10.10;1.00;;;;;;5000203;28;20592;-79
2024/02/08 07:57:58;;;;;;;4.90;4.80;;;10.10;1.00;;;;;;4997389;28;20459;-80
2024/02/08 08:00:41;;;;;;;5.20;4.90;;;10.20;1.00;;;;;;4997191;28;20531;-81
2024/02/08 08:03:15;;;;;;;4.90;4.70;;;10.20;1.00;;;;;;4993730;28;20459;-80
2024/02/08 08:05:50;;;;;;;5.40;5.20;;;10.20;1.00;;;;;;5002775;28;20470;-79
2024/02/08 08:08:25;;;;;;;5.57;5.47;;;10.20;1.00;;;;;;4999462;28;20564;-80
2024/02/08 08:10:56;;;;;;;5.70;5.60;;;10.20;1.00;;;;;;4998188;28;20465;-80
2024/02/08 08:13:50;;;;;;;8.07;7.67;;;10.20;1.00;;;;;;4998274;28;20446;-78
2024/02/08 08:19:07;;;;;;;6.00;5.90;;;10.30;1.00;;;;;;4994148;28;20536;-78
2024/02/08 08:24:26;;;;;;;6.00;5.90;;;10.20;1.00;;;;;;4997235;28;20537;-79
2024/02/08 08:27:06;;;;;;;6.33;6.23;;;10.20;1.00;;;;;;4995634;28;20492;-79
2024/02/08 08:29:43;;;;;;;6.00;5.90;;;10.20;1.00;;;;;;4997831;28;20481;-78
2024/02/08 08:38:13;;;;;;;7.20;7.00;;;10.30;1.00;;;;;;4991517;28;20474;-78
2024/02/08 08:40:37;;;;;;;6.50;6.40;;;10.40;1.00;;;;;;4997521;28;21194;-78
2024/02/08 08:43:10;;;;;;;7.00;6.70;;;10.30;1.00;;;;;;4999250;28;20451;-80
2024/02/08 08:45:41;;;;;;;6.27;6.17;;;10.40;1.00;;;;;;4998939;28;20562;-77
2024/02/08 08:48:09;;;;;;;6.73;6.53;;;10.30;1.00;;;;;;4982499;28;21412;-79
2024/02/08 08:50:38;;;;;;;6.30;6.20;;;10.40;1.00;;;;;;4997327;28;20873;-79
2024/02/08 08:53:16;;;;;;;6.40;6.30;;;10.40;1.00;;;;;;4997075;28;20971;-79
2024/02/08 08:55:49;;;;;;;6.60;6.50;;;10.40;1.00;;;;;;4996727;28;20446;-79
2024/02/08 08:58:22;;;;;;;6.60;6.50;;;10.50;1.00;;;;;;4997444;28;20748;-81
2024/02/08 09:00:58;;;;;;;6.97;6.87;;;10.50;1.00;;;;;;4997940;28;20541;-79
2024/02/08 09:03:27;;;;;;;6.70;6.60;;;10.50;1.00;;;;;;4998964;28;21003;-78
2024/02/08 09:05:57;;;;;;;6.77;6.67;;;10.50;1.00;;;;;;5000594;28;20466;-81
2024/02/08 09:08:33;;;;;;;6.80;6.70;;;10.40;1.00;;;;;;4996012;28;20473;-79
2024/02/08 09:11:03;;;;;;;6.60;6.50;;;10.40;1.00;;;;;;4997657;28;21235;-79
2024/02/08 09:13:37;;;;;;;6.97;6.77;;;10.50;1.00;;;;;;4981644;28;20491;-78
2024/02/08 09:19:04;;;;;;;6.77;6.67;;;10.50;1.00;;;;;;4999058;28;20766;-78
2024/02/08 09:21:39;;;;;;;6.80;6.60;;;10.50;1.00;;;;;;4999323;28;20512;-80
2024/02/08 09:24:17;;;;;;;7.03;6.93;;;10.50;1.00;;;;;;4997170;28;20462;-79
2024/02/08 09:26:49;;;;;;;9.00;8.57;;;10.50;1.00;;;;;;4998452;28;20505;-81
2024/02/08 09:29:23;;;;;;;7.23;7.03;;;10.50;1.00;;;;;;4997530;28;20470;-79
2024/02/08 09:32:14;;;;;;;7.20;7.00;;;10.60;1.00;;;;;;4996554;28;20457;-79
2024/02/08 09:34:46;;;;;;;7.00;6.90;;;10.50;1.00;;;;;;4998707;28;20486;-80
2024/02/08 09:37:15;;;;;;;7.10;7.00;;;10.60;1.00;;;;;;4997878;28;20468;-78
2024/02/08 09:39:53;;;;;;;6.87;6.77;;;10.60;1.00;;;;;;4996281;28;20870;-80
2024/02/08 09:42:26;;;;;;;7.30;7.10;;;10.60;1.00;;;;;;4999051;28;20566;-77
2024/02/08 09:45:04;;;;;;;7.50;7.33;;;10.70;1.00;;;;;;4998413;28;20461;-79
2024/02/08 09:47:35;;;;;;;7.00;6.80;;;10.70;1.00;;;;;;4997798;28;20816;-78
2024/02/08 09:50:08;;;;;;;7.20;7.10;;;10.70;1.00;;;;;;4997903;28;20536;-81
2024/02/08 09:52:45;;;;;;;7.20;7.10;;;10.70;1.00;;;;;;4998399;28;20454;-79
2024/02/08 09:55:20;;;;;;;7.57;7.17;;;10.70;1.00;;;;;;4999210;28;20524;-81
2024/02/08 09:57:49;;;;;;;7.60;7.40;;;10.80;1.00;;;;;;4998128;28;21118;-82
2024/02/08 10:00:54;;;;;;;7.60;7.40;;;10.90;1.00;;;;;;4998045;28;20465;-78
2024/02/08 10:03:32;;;;;;;7.57;7.30;;;10.90;1.00;;;;;;4997696;28;20458;-79
2024/02/08 10:06:12;;;;;;;7.37;7.17;;;10.90;1.00;;;;;;5002069;28;20477;-80
2024/02/08 10:08:51;;;;;;;7.50;7.30;;;10.90;99.90;;;;;;5002407;28;20444;-80
2024/02/08 10:11:35;;;;;;;7.67;7.57;;;11.00;99.90;;;;;;5015140;28;20449;-80
2024/02/08 10:14:23;;;;;;;7.13;6.93;;;11.00;99.90;;;;;;5001884;28;20442;-81
2024/02/08 10:16:53;;;;;;;7.17;7.07;;;11.10;99.90;;;;;;5002442;28;20235;-81
2024/02/08 10:19:36;;;;;;;7.47;7.37;;;11.20;99.90;;;;;;4984425;28;20454;-80
2024/02/08 10:22:17;;;;;;;7.10;7.00;;;11.20;99.90;;;;;;5001536;28;20465;-80
2024/02/08 10:27:35;;;;;;;6.80;6.70;;;11.20;99.90;;;;;;4998754;28;20462;-82
2024/02/08 10:30:06;;;;;;;7.03;6.80;;;11.20;99.90;;;;;;5001238;28;20703;-80
2024/02/08 10:32:37;;;;;;;7.30;7.10;;;11.10;99.90;;;;;;5002981;28;20485;-80
2024/02/08 10:35:14;;;;;;;7.30;7.20;;;11.20;99.90;;;;;;5002654;28;20906;-81
2024/02/08 10:37:49;;;;;;;6.80;6.70;;;11.10;99.90;;;;;;4998409;28;20490;-80
2024/02/08 10:40:32;;;;;;;6.60;6.50;;;11.10;99.90;;;;;;5000830;28;20446;-79
2024/02/08 10:43:03;;;;;;;6.80;6.70;;;11.10;99.90;;;;;;5000384;28;20528;-79
2024/02/08 10:45:43;;;;;;;6.83;6.73;;;11.10;99.90;;;;;;5001649;28;20469;-82
2024/02/08 10:48:14;;;;;;;6.70;6.60;;;11.10;99.90;;;;;;5000918;28;20989;-80
2024/02/08 10:50:46;;;;;;;6.97;6.77;;;11.10;99.90;;;;;;4994270;28;21023;-79
2024/02/08 10:53:39;;;;;;;7.10;6.80;;;11.20;99.90;;;;;;5000836;28;20446;-81
2024/02/08 10:56:14;;;;;;;6.70;6.60;;;11.20;99.90;;;;;;4998179;28;20481;-83
2024/02/08 10:59:09;;;;;;;6.60;6.50;;;11.30;99.90;;;;;;4998439;28;20452;-79
2024/02/08 11:01:39;;;;;;;6.87;6.77;;;11.50;99.90;;;;;;5001862;28;20493;-80
2024/02/08 11:04:17;;;;;;;7.65;7.55;;;11.70;1.00;;;;;;4999537;28;20569;-81
2024/02/08 11:06:58;;;;;;;8.13;7.90;;;12.20;1.00;;;;;;4999138;28;20215;-81
2024/02/08 11:09:27;;;;;;;8.57;8.37;;;13.60;1.00;;;;;;4999539;28;20473;-80
2024/02/08 11:12:03;;;;;;;8.37;8.27;;;13.90;99.90;;;;;;4997262;28;21498;-79
2024/02/08 11:14:40;;;;;;;7.90;7.80;;;14.00;1.00;;;;;;4997305;28;20465;-80
2024/02/08 11:17:20;;;;;;;7.30;7.20;;;13.90;1.00;;;;;;4997351;28;20488;-79
2024/02/08 11:19:56;;;;;;;7.00;6.90;;;13.70;1.00;;;;;;4998173;28;21057;-82
2024/02/08 11:22:40;;;;;;;7.10;7.00;;;13.30;3.10;;;;;;4999179;28;20458;-79
2024/02/08 11:25:23;;;;;;;7.80;7.60;;;13.20;1.00;;;;;;4998487;28;20478;-83
2024/02/08 11:27:55;;;;;;;6.83;6.73;;;13.30;99.90;;;;;;4998821;28;20439;-79
2024/02/08 11:30:33;;;;;;;6.50;6.40;;;13.00;99.90;;;;;;5000173;28;20495;-79
2024/02/08 11:33:03;;;;;;;6.90;6.80;;;12.70;1.00;;;;;;5000303;28;20564;-80
2024/02/08 11:35:32;;;;;;;6.83;6.73;;;12.80;1.00;;;;;;4998579;28;21018;-79
2024/02/08 11:38:16;;;;;;;6.63;6.43;;;12.90;1.00;;;;;;4999876;28;20458;-80
2024/02/08 11:40:47;;;;;;;6.30;6.20;;;12.60;99.90;;;;;;4984444;28;20555;-80
2024/02/08 11:43:24;;;;;;;6.50;6.40;;;12.40;99.90;;;;;;4996589;28;20482;-79
2024/02/08 11:45:55;;;;;;;6.90;6.70;;;12.20;99.90;;;;;;4999244;28;20498;-79
2024/02/08 11:48:28;;;;;;;6.63;6.43;;;12.10;1.00;;;;;;4994839;28;20520;-81
2024/02/08 11:50:58;;;;;;;6.17;6.07;;;12.00;99.90;;;;;;4998683;28;20459;-78
2024/02/08 11:53:33;;;;;;;6.20;6.10;;;12.00;99.90;;;;;;4997834;28;20447;-80
2024/02/08 11:56:07;;;;;;;6.40;6.30;;;12.00;1.00;;;;;;4999852;28;20992;-80
2024/02/08 11:58:40;;;;;;;6.93;6.73;;;12.00;99.90;;;;;;4997283;28;20474;-79
2024/02/08 12:01:09;;;;;;;6.13;6.03;;;11.90;1.00;;;;;;4997210;28;20465;-79
2024/02/08 12:03:41;;;;;;;6.40;6.30;;;11.90;99.90;;;;;;4996737;28;20544;-79
2024/02/08 12:06:22;;;;;;;7.10;6.90;;;12.00;99.90;;;;;;4997745;28;20892;-79
2024/02/08 12:08:57;;;;;;;6.23;6.07;;;12.00;1.00;;;;;;4998488;28;20446;-78
2024/02/08 12:11:29;;;;;;;6.33;6.13;;;12.00;1.00;;;;;;4996809;28;20446;-79
2024/02/08 12:13:59;;;;;;;6.23;6.10;;;12.10;99.90;;;;;;4996418;28;20466;-81
2024/02/08 12:16:46;;;;;;;6.77;6.57;;;12.10;99.90;;;;;;4996651;28;20564;-78
2024/02/08 12:19:16;;;;;;;6.03;5.87;;;12.10;1.00;;;;;;4997146;28;20454;-78
2024/02/08 12:21:44;;;;;;;6.37;6.20;;;12.10;1.00;;;;;;4997242;28;20557;-79
2024/02/08 12:24:16;;;;;;;6.30;6.10;;;12.20;83.90;;;;;;4994708;28;20474;-78
2024/02/08 12:26:46;;;;;;;6.70;6.40;;;12.20;99.90;;;;;;4992623;28;20489;-79
2024/02/08 12:29:17;;;;;;;6.40;6.20;;;12.20;1.00;;;;;;4995328;28;20986;-77
2024/02/08 12:31:47;;;;;;;6.13;5.93;;;12.20;1.00;;;;;;4997125;28;21359;-79
2024/02/08 12:34:17;;;;;;;6.50;6.27;;;12.20;99.90;;;;;;4995720;28;20536;-79
2024/02/08 12:36:47;;;;;;;6.23;5.90;;;12.20;1.00;;;;;;5000105;28;20477;-81
2024/02/08 12:39:20;;;;;;;6.67;5.90;;;12.40;99.90;;;;;;4996559;28;20450;-79
2024/02/08 12:41:50;;;;;;;5.67;5.47;;;12.50;1.00;;;;;;4996762;28;20508;-80
2024/02/08 12:44:20;;;;;;;7.37;5.97;;;12.70;1.00;;;;;;4995625;28;20565;-79
2024/02/08 12:46:54;;;;;;;6.30;6.00;;;12.80;99.90;;;;;;5000464;28;20508;-81
2024/02/08 12:49:24;;;;;;;6.40;5.90;;;12.80;1.00;;;;;;4994985;28;20454;-80
2024/02/08 12:51:59;;;;;;;7.03;6.57;;;12.70;99.90;;;;;;4994945;28;20447;-79
2024/02/08 12:54:29;;;;;;;6.80;6.40;;;12.70;1.00;;;;;;4995531;28;21053;-79
2024/02/08 12:57:08;;;;;;;7.07;6.63;;;12.70;1.00;;;;;;4996779;28;20487;-81
2024/02/08 12:59:38;;;;;;;7.27;6.70;;;12.70;1.00;;;;;;4999732;28;20489;-81
2024/02/08 13:02:16;;;;;;;6.30;5.80;;;12.80;1.00;;;;;;5000887;28;20457;-80
2024/02/08 13:04:46;;;;;;;6.47;5.93;;;12.90;1.00;;;;;;4999694;28;20462;-82
2024/02/08 13:07:17;;;;;;;6.80;6.37;;;12.90;1.00;;;;;;4999495;28;20450;-82
2024/02/08 13:09:48;;;;;;;7.67;7.03;;;12.90;1.00;;;;;;5000770;28;20451;-82
2024/02/08 13:12:19;;;;;;;6.63;6.03;;;13.00;1.00;;;;;;5000081;28;20466;-81
2024/02/08 13:15:02;;;;;;;7.73;6.97;;;13.00;1.00;;;;;;4999348;28;20470;-81
2024/02/08 13:17:33;;;;;;;5.53;5.30;;;13.00;1.00;;;;;;4999669;28;20469;-81
2024/02/08 13:20:11;;;;;;;6.33;5.73;;;13.00;1.00;;;;;;4999921;28;20453;-79
2024/02/08 13:22:44;;;;;;;6.07;5.77;;;13.00;99.90;;;;;;4994992;28;21051;-78
2024/02/08 13:25:16;;;;;;;7.73;6.23;;;12.80;99.90;;;;;;4996772;28;20481;-79
2024/02/08 13:27:46;;;;;;;6.37;5.70;;;12.80;99.90;;;;;;4995868;28;20454;-78
2024/02/08 13:30:18;;;;;;;7.20;6.50;;;12.70;99.90;;;;;;4999299;28;20468;-78
2024/02/08 13:32:51;;;;;;;10.13;6.30;;;12.80;99.90;;;;;;4998444;28;20509;-78
2024/02/08 13:35:23;;;;;;;5.80;5.40;;;12.90;99.90;;;;;;4993810;28;20476;-81
2024/02/08 13:37:53;;;;;;;5.90;5.23;;;12.80;99.90;;;;;;4996775;28;20477;-81
2024/02/08 13:40:25;;;;;;;9.30;5.97;;;12.80;99.90;;;;;;4999310;28;20441;-78
2024/02/08 13:42:57;;;;;;;6.13;5.67;;;12.80;99.90;;;;;;5003242;28;20465;-80
2024/02/08 13:45:29;;;;;;;8.73;6.20;;;12.80;99.90;;;;;;5002689;28;20568;-81
2024/02/08 13:48:03;;;;;;;11.40;5.97;;;12.80;99.90;;;;;;5004100;28;20452;-80
2024/02/08 13:50:33;;;;;;;6.47;5.93;;;12.90;99.90;;;;;;5001511;28;20465;-78
2024/02/08 13:53:02;;;;;;;6.33;5.60;;;12.80;99.90;;;;;;5002016;28;20527;-80
2024/02/08 13:55:34;;;;;;;7.67;5.00;;;12.80;99.90;;;;;;4984297;28;20470;-80
2024/02/08 13:58:20;;;;;;;7.60;6.70;;;12.80;99.90;;;;;;5000318;28;20549;-80
2024/02/08 14:00:50;;;;;;;15.83;5.80;;;12.70;99.90;;;;;;4984410;28;20454;-78
2024/02/08 14:03:22;;;;;;;10.43;6.00;;;12.80;99.90;;;;;;5001661;28;21024;-80
2024/02/08 14:05:55;;;;;;;9.63;5.40;;;12.70;99.90;;;;;;5000538;28;20469;-78
2024/02/08 14:08:27;;;;;;;5.70;5.10;;;12.70;99.90;;;;;;4997111;28;20458;-79
2024/02/08 14:10:59;;;;;;;10.30;4.97;;;12.70;99.90;;;;;;4999968;28;20564;-78
2024/02/08 14:13:34;;;;;;;7.37;6.60;;;12.70;99.90;;;;;;4995461;28;20463;-79
2024/02/08 14:16:13;;;;;;;9.93;6.20;;;12.80;99.90;;;;;;4996953;28;20489;-79
2024/02/08 14:18:49;;;;;;;11.00;5.63;;;12.70;99.90;;;;;;4994742;28;20483;-81
2024/02/08 14:21:24;;;;;;;5.73;5.20;;;12.70;99.90;;;;;;4999952;28;20490;-81
2024/02/08 14:23:59;;;;;;;6.87;5.30;;;12.60;99.90;;;;;;4999313;28;20482;-79
2024/02/08 14:26:36;;;;;;;11.77;6.57;;;12.60;99.90;;;;;;4982903;28;20990;-79
2024/02/08 14:29:08;;;;;;;6.40;4.90;;;12.60;99.90;;;;;;4997283;28;20465;-79
2024/02/08 14:31:37;;;;;;;7.37;5.70;;;12.60;99.90;;;;;;5001484;28;20470;-80
2024/02/08 14:34:10;;;;;;;5.93;5.43;;;12.60;99.90;;;;;;4999963;28;20633;-80
2024/02/08 14:36:42;;;;;;;6.63;4.60;;;12.60;99.90;;;;;;5002801;28;20454;-79
2024/02/08 14:39:26;;;;;;;11.57;5.63;;;12.70;99.90;;;;;;4995197;28;20500;-79
2024/02/08 14:41:58;;;;;;;10.43;5.93;;;12.70;99.90;;;;;;4998686;28;22245;-78
2024/02/08 14:44:40;;;;;;;8.17;5.67;;;12.70;99.90;;;;;;5000465;28;20191;-79
2024/02/08 14:47:14;;;;;;;7.87;5.50;;;12.70;99.90;;;;;;4998763;28;20491;-78
2024/02/08 14:49:55;;;;;;;10.43;4.90;;;12.70;99.90;;;;;;5002198;28;20536;-80
2024/02/08 14:52:26;;;;;;;16.60;6.23;;;12.70;99.90;;;;;;5001165;28;20446;-79
2024/02/08 14:54:58;;;;;;;7.97;5.07;;;12.60;99.90;;;;;;4998828;28;20442;-78
2024/02/08 14:57:38;;;;;;;12.80;5.67;;;12.60;99.90;;;;;;5002329;28;20545;-79
2024/02/08 15:02:56;;;;;;;8.20;5.00;;;12.60;99.90;;;;;;4995600;28;20480;-79
2024/02/08 15:05:40;;;;;;;10.37;5.30;;;12.50;99.90;;;;;;5000821;28;21021;-79
2024/02/08 15:08:29;;;;;;;10.67;5.90;;;12.50;99.90;;;;;;4997093;28;20451;-79
2024/02/08 15:11:03;;;;;;;15.27;5.90;;;12.40;99.90;;;;;;4998730;28;20466;-80
2024/02/08 15:13:45;;;;;;;8.20;5.30;;;12.40;99.90;;;;;;5000922;28;20536;-79